createdAt,value
2022-12-15T00:00:00.337Z,-5.5
2022-12-15T00:05:00.239Z,-5.5
2022-12-15T00:10:00.233Z,-5.5
2022-12-15T00:15:00.236Z,-5.5
2022-12-15T00:20:00.256Z,-5.5
2022-12-15T00:25:00.287Z,-5.5
2022-12-15T00:30:00.185Z,-5.5
2022-12-15T00:35:00.269Z,-5.4
2022-12-15T00:40:00.334Z,-5.4
2022-12-15T00:45:00.232Z,-5.4
2022-12-15T00:50:00.375Z,-5.4
2022-12-15T00:55:00.290Z,-5.3
2022-12-15T01:00:00.367Z,-5.3
2022-12-15T01:05:00.225Z,-5.3
2022-12-15T01:10:00.377Z,-5.3
2022-12-15T01:15:00.223Z,-5.3
2022-12-15T01:20:00.350Z,-5.3
2022-12-15T01:25:00.265Z,-5.3
2022-12-15T01:30:00.251Z,-5.4
2022-12-15T01:35:00.258Z,-5.4
2022-12-15T01:40:00.326Z,-5.4
2022-12-15T01:45:00.258Z,-5.5
2022-12-15T01:50:00.249Z,-5.5
2022-12-15T01:55:00.243Z,-5.5
2022-12-15T02:00:00.252Z,-5.5
2022-12-15T02:05:00.259Z,-5.4
2022-12-15T02:10:00.253Z,-5.5
2022-12-15T02:15:00.309Z,-5.4
2022-12-15T02:20:00.254Z,-5.4
2022-12-15T02:25:00.177Z,-5.5
2022-12-15T02:30:00.285Z,-5.5
2022-12-15T02:35:00.286Z,-5.5
2022-12-15T02:40:00.255Z,-5.4
2022-12-15T02:45:00.197Z,-5.5
2022-12-15T02:50:00.253Z,-5.5
2022-12-15T02:55:00.511Z,-5.5
2022-12-15T03:00:00.353Z,-5.5
2022-12-15T03:05:00.251Z,-5.5
2022-12-15T03:10:00.236Z,-5.5
2022-12-15T03:15:00.227Z,-5.5
2022-12-15T03:20:00.243Z,-5.5
2022-12-15T03:25:00.209Z,-5.5
2022-12-15T03:30:00.209Z,-5.5
2022-12-15T03:35:00.218Z,-5.5
2022-12-15T03:40:00.276Z,-5.5
2022-12-15T03:45:00.237Z,-5.5
2022-12-15T03:50:00.232Z,-5.4
2022-12-15T03:55:00.267Z,-5.4
2022-12-15T04:00:00.277Z,-5.4
2022-12-15T04:05:00.286Z,-5.4
2022-12-15T04:10:00.241Z,-5.3
2022-12-15T04:15:00.350Z,-5.3
2022-12-15T04:20:00.350Z,-5.2
2022-12-15T04:25:00.261Z,-5.2
2022-12-15T04:30:00.285Z,-5.2
2022-12-15T04:35:00.226Z,-5.2
2022-12-15T04:40:00.311Z,-5.2
2022-12-15T04:45:00.241Z,-5.2
2022-12-15T04:50:00.278Z,-5.2
2022-12-15T04:55:00.283Z,-5.2
2022-12-15T05:00:00.337Z,-5.3
2022-12-15T05:05:00.275Z,-5.3
2022-12-15T05:10:03.264Z,-5.3
2022-12-15T05:15:00.267Z,-5.3
2022-12-15T05:20:00.293Z,-5.3
2022-12-15T05:25:00.230Z,-5.3
2022-12-15T05:30:00.274Z,-5.4
2022-12-15T05:35:00.284Z,-5.4
2022-12-15T05:40:00.288Z,-5.4
2022-12-15T05:45:00.288Z,-5.4
2022-12-15T05:50:00.225Z,-5.3
2022-12-15T05:55:00.240Z,-5.3
2022-12-15T06:00:00.353Z,-5.2
2022-12-15T06:05:00.339Z,-5.2
2022-12-15T06:10:00.197Z,-5.2
2022-12-15T06:15:00.317Z,-5.1
2022-12-15T06:20:00.305Z,-5.1
2022-12-15T06:25:00.289Z,-5
2022-12-15T06:30:00.282Z,-5
2022-12-15T06:35:00.280Z,-5
2022-12-15T06:40:00.298Z,-4.9
2022-12-15T06:45:00.245Z,-4.9
2022-12-15T06:50:00.203Z,-4.9
2022-12-15T06:55:00.286Z,-4.9
2022-12-15T07:00:00.232Z,-4.9
2022-12-15T07:05:00.263Z,-4.9
2022-12-15T07:10:00.229Z,-5
2022-12-15T07:15:00.270Z,-5
2022-12-15T07:20:00.304Z,-5
2022-12-15T07:25:00.429Z,-5.1
2022-12-15T07:30:00.313Z,-5.1
2022-12-15T07:35:00.283Z,-5.2
2022-12-15T07:40:00.309Z,-5.2
2022-12-15T07:45:00.246Z,-5.2
2022-12-15T07:50:00.200Z,-5.2
2022-12-15T07:55:00.648Z,-5.2
2022-12-15T08:00:00.384Z,-5.3
2022-12-15T08:05:00.258Z,-5.3
2022-12-15T08:10:00.238Z,-5.3
2022-12-15T08:15:00.258Z,-5.3
2022-12-15T08:20:03.505Z,-5.3
2022-12-15T08:25:00.283Z,-5.3
2022-12-15T08:30:00.270Z,-5.3
2022-12-15T08:35:00.263Z,-5.2
2022-12-15T08:40:00.294Z,-5.2
2022-12-15T08:45:00.216Z,-5.2
2022-12-15T08:50:00.276Z,-5.2
2022-12-15T08:55:00.255Z,-5.1
2022-12-15T09:00:00.289Z,-5.1
2022-12-15T09:05:00.251Z,-5
2022-12-15T09:10:00.207Z,-5
2022-12-15T09:15:00.213Z,-4.9
2022-12-15T09:20:00.316Z,-4.8
2022-12-15T09:25:00.259Z,-4.8
2022-12-15T09:30:00.282Z,-4.8
2022-12-15T09:35:00.297Z,-4.6
2022-12-15T09:40:00.228Z,-4.6
2022-12-15T09:45:00.256Z,-4.5
2022-12-15T09:50:00.297Z,-4.5
2022-12-15T09:55:00.298Z,-4.4
2022-12-15T10:00:00.382Z,-4.3
2022-12-15T10:05:00.344Z,-4.3
2022-12-15T10:10:00.302Z,-4.2
2022-12-15T10:15:00.314Z,-4.1
2022-12-15T10:20:00.275Z,-4.1
2022-12-15T10:25:09.834Z,-3.9
2022-12-15T10:30:00.426Z,-3.9
2022-12-15T10:35:00.307Z,-3.8
2022-12-15T10:40:00.313Z,-3.7
2022-12-15T10:45:00.222Z,-3.6
2022-12-15T10:50:00.281Z,-3.5
2022-12-15T10:55:00.274Z,-3.4
2022-12-15T11:00:00.362Z,-3.2
2022-12-15T11:05:00.259Z,-3.1
2022-12-15T11:10:00.213Z,-3
2022-12-15T11:15:00.219Z,-2.9
2022-12-15T11:20:02.987Z,-2.8
2022-12-15T11:25:00.282Z,-2.7
2022-12-15T11:30:00.317Z,-2.6
2022-12-15T11:35:00.280Z,-2.6
2022-12-15T11:40:00.297Z,-2.4
2022-12-15T11:45:00.306Z,-2.3
2022-12-15T11:50:00.247Z,-2.2
2022-12-15T11:55:00.548Z,-2.1
2022-12-15T12:00:00.367Z,-2.1
2022-12-15T12:05:00.310Z,-2
2022-12-15T12:10:00.238Z,-1.9
2022-12-15T12:15:00.225Z,-1.8
2022-12-15T12:20:00.346Z,-1.7
2022-12-15T12:25:00.276Z,-1.6
2022-12-15T12:30:00.281Z,-1.5
2022-12-15T12:35:32.247Z,-1.4
2022-12-15T12:40:00.308Z,-1.3
2022-12-15T12:45:00.238Z,-1.3
2022-12-15T12:50:00.263Z,-1.2
2022-12-15T12:55:00.220Z,-1.2
2022-12-15T13:00:00.340Z,-1.1
2022-12-15T13:05:00.300Z,-1
2022-12-15T13:10:00.274Z,-1
2022-12-15T13:15:00.275Z,-0.9
2022-12-15T13:20:00.530Z,-0.8
2022-12-15T13:25:00.301Z,-0.8
2022-12-15T13:30:00.272Z,-0.8
2022-12-15T13:35:00.287Z,-0.8
2022-12-15T13:40:00.266Z,-0.7
2022-12-15T13:45:00.228Z,-0.6
2022-12-15T13:50:02.225Z,-0.6
2022-12-15T13:55:00.274Z,-0.5
2022-12-15T14:00:00.254Z,-0.5
2022-12-15T14:05:00.236Z,-0.4
2022-12-15T14:10:00.226Z,-0.4
2022-12-15T14:15:00.231Z,-0.3
2022-12-15T14:20:00.337Z,-0.3
2022-12-15T14:25:01.003Z,-0.3
2022-12-15T14:35:00.285Z,-0.3
2022-12-15T14:40:00.281Z,-0.3
2022-12-15T14:45:00.224Z,-0.3
2022-12-15T14:50:00.941Z,-0.3
2022-12-15T14:55:00.241Z,-0.3
2022-12-15T15:00:00.349Z,-0.3
2022-12-15T15:05:00.298Z,-0.4
2022-12-15T15:10:00.255Z,-0.4
2022-12-15T15:15:00.229Z,-0.6
2022-12-15T15:20:00.241Z,-0.6
2022-12-15T15:25:00.251Z,-0.7
2022-12-15T15:30:00.317Z,-0.8
2022-12-15T15:35:00.294Z,-0.8
2022-12-15T15:40:00.333Z,-1
2022-12-15T15:45:00.491Z,-1.1
2022-12-15T15:50:00.229Z,-1.1
2022-12-15T15:55:00.281Z,-1.2
2022-12-15T16:00:00.372Z,-1.3
2022-12-15T16:05:00.239Z,-1.4
2022-12-15T16:10:00.246Z,-1.4
2022-12-15T16:15:00.244Z,-1.5
2022-12-15T16:20:00.727Z,-1.6
2022-12-15T16:25:00.227Z,-1.7
2022-12-15T16:30:00.281Z,-1.7
2022-12-15T16:35:00.292Z,-1.8
2022-12-15T16:40:00.239Z,-1.8
2022-12-15T16:45:00.253Z,-1.9
2022-12-15T16:50:00.256Z,-1.9
2022-12-15T16:55:00.266Z,-2
2022-12-15T17:00:00.357Z,-2.1
2022-12-15T17:05:00.217Z,-2.1
2022-12-15T17:10:00.242Z,-2.1
2022-12-15T17:15:00.343Z,-2.2
2022-12-15T17:20:29.679Z,-2.2
2022-12-15T17:25:00.257Z,-2.3
2022-12-15T17:30:00.348Z,-2.4
2022-12-15T17:35:00.348Z,-2.4
2022-12-15T17:40:00.289Z,-2.5
2022-12-15T17:45:00.400Z,-2.5
2022-12-15T17:50:00.280Z,-2.6
2022-12-15T17:55:00.248Z,-2.6
2022-12-15T18:00:00.534Z,-2.6
2022-12-15T18:05:00.257Z,-2.7
2022-12-15T18:10:00.321Z,-2.7
2022-12-15T18:15:00.236Z,-2.8
2022-12-15T18:20:00.466Z,-2.9
2022-12-15T18:25:00.242Z,-3
2022-12-15T18:30:00.375Z,-3
2022-12-15T18:35:00.262Z,-3.1
2022-12-15T18:40:04.610Z,-3.1
2022-12-15T18:45:00.483Z,-3.2
2022-12-15T18:50:00.259Z,-3.2
2022-12-15T18:55:00.235Z,-3.3
2022-12-15T19:00:00.274Z,-3.3
2022-12-15T19:05:00.322Z,-3.4
2022-12-15T19:10:00.260Z,-3.5
2022-12-15T19:15:00.228Z,-3.5
2022-12-15T19:20:00.308Z,-3.5
2022-12-15T19:25:00.261Z,-3.6
2022-12-15T19:30:00.275Z,-3.6
2022-12-15T19:35:00.282Z,-3.6
2022-12-15T19:40:00.238Z,-3.7
2022-12-15T19:45:00.392Z,-3.7
2022-12-15T19:50:00.300Z,-3.8
2022-12-15T19:55:00.258Z,-3.8
2022-12-15T20:00:00.315Z,-3.8
2022-12-15T20:05:00.247Z,-3.9
2022-12-15T20:10:00.283Z,-3.9
2022-12-15T20:15:00.260Z,-3.9
2022-12-15T20:20:00.370Z,-4
2022-12-15T20:25:00.235Z,-4
2022-12-15T20:30:00.283Z,-4.1
2022-12-15T20:35:00.289Z,-4.1
2022-12-15T20:40:00.304Z,-4.2
2022-12-15T20:45:00.320Z,-4.2
2022-12-15T20:50:00.194Z,-4.2
2022-12-15T20:55:00.294Z,-4.2
2022-12-15T21:00:00.386Z,-4.3
2022-12-15T21:05:00.261Z,-4.3
2022-12-15T21:10:00.247Z,-4.3
2022-12-15T21:15:00.207Z,-4.3
2022-12-15T21:20:00.326Z,-4.4
2022-12-15T21:25:00.231Z,-4.4
2022-12-15T21:30:00.278Z,-4.5
2022-12-15T21:35:00.222Z,-4.5
2022-12-15T21:40:00.280Z,-4.6
2022-12-15T21:45:00.209Z,-4.6
2022-12-15T21:50:00.263Z,-4.6
2022-12-15T21:55:00.260Z,-4.7
2022-12-15T22:00:00.291Z,-4.7
2022-12-15T22:05:00.266Z,-4.8
2022-12-15T22:10:00.270Z,-4.8
2022-12-15T22:15:00.231Z,-4.8
2022-12-15T22:20:00.273Z,-4.8
2022-12-15T22:25:00.204Z,-4.8
2022-12-15T22:30:00.266Z,-4.9
2022-12-15T22:35:00.239Z,-5
2022-12-15T22:40:00.215Z,-5
2022-12-15T22:45:00.273Z,-5
2022-12-15T22:50:00.252Z,-5.1
2022-12-15T22:55:00.214Z,-5.1
2022-12-15T23:00:00.388Z,-5.1
2022-12-15T23:05:00.210Z,-5.2
2022-12-15T23:10:00.241Z,-5.2
2022-12-15T23:15:00.163Z,-5.2
2022-12-15T23:20:00.223Z,-5.2
2022-12-15T23:25:00.272Z,-5.2
2022-12-15T23:30:00.234Z,-5.3
2022-12-15T23:35:00.264Z,-5.3
2022-12-15T23:40:00.275Z,-5.3
2022-12-15T23:45:00.296Z,-5.3
2022-12-15T23:50:00.242Z,-5.4
2022-12-15T23:55:00.190Z,-5.4
